Time;durP1;ratioP1;P1;durP2;ratioP2;P2;SDS_P1;SDS_P2;PMS_P1;PMS_P2;Temp;Humidity;BMP_temperature;BMP_pressure;BME280_temperature;BME280_humidity;BME280_pressure;Samples;Min_cycle;Max_cycle;Signal;HPM_P1;HPM_P2
2022/09/02 00:01:26;;;;;;;5.10;3.55;;;;;;;9.67;64.46;100936.38;1741443;82;26173;-70
2022/09/02 00:04:01;;;;;;;7.05;3.58;;;;;;;9.64;65.04;100937.50;1721977;82;25593;-70
2022/09/02 00:06:29;;;;;;;7.67;3.55;;;;;;;9.58;64.94;100934.02;1722707;82;27482;-70
2022/09/02 00:08:56;;;;;;;6.33;2.93;;;;;;;9.53;64.86;100929.50;1741387;82;25741;-69
2022/09/02 00:11:27;;;;;;;7.47;3.27;;;;;;;9.50;64.72;100934.64;1737516;82;25605;-70
2022/09/02 00:13:55;;;;;;;5.55;3.30;;;;;;;9.47;65.31;100929.28;1737973;81;25716;-70
2022/09/02 00:16:23;;;;;;;6.20;3.00;;;;;;;9.45;65.00;100923.38;1738716;81;25384;-70
2022/09/02 00:18:52;;;;;;;4.17;2.87;;;;;;;9.43;65.27;100922.86;1721727;82;27331;-70
2022/09/02 00:21:20;;;;;;;8.15;3.00;;;;;;;9.42;65.21;100921.23;1739672;81;25682;-70
2022/09/02 00:23:48;;;;;;;10.13;3.37;;;;;;;9.40;65.62;100919.89;1740715;81;25587;-70
2022/09/02 00:26:16;;;;;;;6.80;3.27;;;;;;;9.39;65.58;100921.00;1738331;81;25708;-70
2022/09/02 00:28:42;;;;;;;5.75;3.33;;;;;;;9.37;65.67;100925.34;1732567;82;25820;-70
2022/09/02 00:31:09;;;;;;;3.90;3.02;;;;;;;9.36;65.52;100926.41;1734767;81;27318;-70
2022/09/02 00:33:35;;;;;;;9.75;3.58;;;;;;;9.34;65.85;100924.00;1733397;81;33092;-70
2022/09/02 00:36:04;;;;;;;4.28;2.70;;;;;;;9.31;65.89;100927.29;1737417;81;25516;-70
2022/09/02 00:38:32;;;;;;;5.13;2.87;;;;;;;9.28;65.49;100926.50;1734949;82;25769;-70
2022/09/02 00:41:02;;;;;;;6.08;3.17;;;;;;;9.26;65.78;100927.86;1738806;81;25705;-70
2022/09/02 00:43:46;;;;;;;5.62;3.15;;;;;;;9.22;66.06;100927.63;1713871;82;27270;-70
2022/09/02 00:46:16;;;;;;;10.48;3.50;;;;;;;9.16;65.98;100933.62;1740125;81;25753;-70
2022/09/02 00:48:54;;;;;;;5.60;2.70;;;;;;;9.13;65.63;100936.09;1740013;81;25701;-70
2022/09/02 00:51:21;;;;;;;6.33;2.83;;;;;;;9.07;65.83;100927.77;1730726;81;25683;-70
2022/09/02 00:53:48;;;;;;;7.15;3.05;;;;;;;9.03;65.49;100933.48;1730059;81;25689;-70
2022/09/02 00:56:23;;;;;;;6.28;3.70;;;;;;;8.99;65.42;100938.64;1726933;81;27948;-69
2022/09/02 00:58:52;;;;;;;6.15;2.77;;;;;;;8.95;65.55;100935.67;1731560;81;25447;-70
2022/09/02 01:01:21;;;;;;;5.17;2.37;;;;;;;8.93;65.75;100935.70;1737715;82;25370;-71
2022/09/02 01:03:48;;;;;;;6.10;2.75;;;;;;;8.91;66.22;100945.98;1718587;81;25691;-71
2022/09/02 01:06:20;;;;;;;6.92;3.30;;;;;;;8.88;66.02;100943.84;1714066;82;25546;-70
2022/09/02 01:08:53;;;;;;;5.87;2.80;;;;;;;8.82;65.81;100944.43;1712920;81;27239;-69
2022/09/02 01:11:20;;;;;;;6.92;2.30;;;;;;;8.77;65.81;100944.47;1736817;81;26469;-69
2022/09/02 01:13:46;;;;;;;4.67;2.15;;;;;;;8.68;65.98;100942.88;1738255;81;25605;-70
2022/09/02 01:16:24;;;;;;;5.03;2.33;;;;;;;8.64;65.84;100935.10;1736303;81;25753;-71
2022/09/02 01:18:54;;;;;;;9.35;2.70;;;;;;;8.62;66.04;100939.18;1711410;82;25591;-71
2022/09/02 01:21:22;;;;;;;4.42;3.02;;;;;;;8.60;66.30;100937.56;1739278;81;27480;-72
2022/09/02 01:23:49;;;;;;;5.72;2.42;;;;;;;8.60;66.49;100940.25;1714884;82;25455;-69
2022/09/02 01:26:15;;;;;;;6.53;2.40;;;;;;;8.61;66.83;100938.35;1738373;81;25436;-69
2022/09/02 01:28:42;;;;;;;6.65;2.50;;;;;;;8.59;66.69;100937.28;1732821;82;25582;-70
2022/09/02 01:31:08;;;;;;;5.08;2.60;;;;;;;8.59;66.95;100940.53;1741452;81;25440;-71
2022/09/02 01:33:34;;;;;;;5.20;2.25;;;;;;;8.59;66.84;100941.33;1737139;81;27936;-71
2022/09/02 01:36:03;;;;;;;8.35;2.80;;;;;;;8.60;66.91;100935.41;1737598;81;25778;-71
2022/09/02 01:38:30;;;;;;;4.97;2.70;;;;;;;8.62;67.15;100937.83;1735933;81;25553;-72
2022/09/02 01:40:57;;;;;;;3.83;2.22;;;;;;;8.60;67.23;100936.20;1738889;81;25610;-70
2022/09/02 01:43:26;;;;;;;5.15;2.90;;;;;;;8.58;67.00;100934.34;1737965;81;25695;-70
2022/09/02 01:45:55;;;;;;;4.80;2.55;;;;;;;8.59;66.92;100943.23;1740549;81;27967;-70
2022/09/02 01:48:21;;;;;;;4.17;2.47;;;;;;;8.58;67.02;100939.73;1740543;81;25772;-70
2022/09/02 01:50:53;;;;;;;4.37;2.85;;;;;;;8.57;67.32;100943.50;1735275;81;25585;-70
2022/09/02 01:53:19;;;;;;;3.25;2.50;;;;;;;8.56;67.44;100942.43;1733970;80;25669;-69
2022/09/02 01:55:46;;;;;;;5.95;2.85;;;;;;;8.55;67.32;100946.23;1733716;81;25380;-69
2022/09/02 01:58:12;;;;;;;5.53;2.85;;;;;;;8.55;67.72;100941.63;1737228;81;27649;-69
2022/09/02 02:00:39;;;;;;;4.53;2.72;;;;;;;8.56;67.58;100939.22;1734583;81;25755;-70
2022/09/02 02:03:06;;;;;;;3.95;2.85;;;;;;;8.57;67.75;100942.70;1738669;81;25500;-69
2022/09/02 02:05:32;;;;;;;4.87;2.98;;;;;;;8.56;67.58;100947.30;1737050;81;25665;-69
2022/09/02 02:07:59;;;;;;;5.03;2.65;;;;;;;8.55;67.38;100939.48;1739960;81;25555;-69
2022/09/02 02:10:25;;;;;;;4.25;2.77;;;;;;;8.52;67.46;100940.04;1739813;81;27243;-69
2022/09/02 02:12:51;;;;;;;3.37;2.80;;;;;;;8.50;67.39;100943.02;1719008;82;25407;-69
2022/09/02 02:15:20;;;;;;;3.58;2.85;;;;;;;8.47;67.42;100947.61;1739118;81;25697;-69
2022/09/02 02:17:47;;;;;;;9.80;3.15;;;;;;;8.45;67.26;100946.29;1738124;81;25610;-70
2022/09/02 02:20:17;;;;;;;4.87;2.65;;;;;;;8.41;67.52;100946.81;1740210;81;25577;-70
2022/09/02 02:22:44;;;;;;;8.18;2.67;;;;;;;8.39;67.73;100943.59;1740810;81;27304;-70
2022/09/02 02:25:14;;;;;;;6.85;3.22;;;;;;;8.38;67.90;100941.97;1735252;81;25763;-70
2022/09/02 02:27:41;;;;;;;5.00;2.62;;;;;;;8.36;67.93;100937.41;1735378;81;25497;-70
2022/09/02 02:30:10;;;;;;;5.70;3.12;;;;;;;8.33;67.93;100938.50;1732549;82;25556;-69
2022/09/02 02:32:37;;;;;;;5.40;4.10;;;;;;;8.29;67.97;100937.43;1713557;82;25621;-70
2022/09/02 02:35:06;;;;;;;6.55;4.72;;;;;;;8.24;68.13;100930.20;1737749;81;27332;-69
2022/09/02 02:37:32;;;;;;;9.45;5.60;;;;;;;8.19;68.17;100936.41;1738688;82;25727;-69
2022/09/02 02:39:59;;;;;;;10.48;5.97;;;;;;;8.19;68.22;100934.27;1739353;81;25688;-69
2022/09/02 02:42:25;;;;;;;8.85;5.80;;;;;;;8.15;68.26;100937.23;1711876;81;25749;-69
2022/09/02 02:44:52;;;;;;;10.93;5.95;;;;;;;8.12;68.23;100938.61;1716860;80;25435;-69
2022/09/02 02:47:18;;;;;;;10.00;6.37;;;;;;;8.10;68.14;100937.25;1742032;81;27272;-70
2022/09/02 02:49:44;;;;;;;17.42;7.00;;;;;;;8.07;68.31;100935.11;1737852;81;25790;-70
2022/09/02 02:52:11;;;;;;;10.63;6.08;;;;;;;8.03;68.27;100939.70;1767022;80;30218;-70
2022/09/02 02:54:39;;;;;;;7.78;4.50;;;;;;;8.00;68.32;100936.75;1721162;81;25861;-70
2022/09/02 02:57:07;;;;;;;5.85;3.35;;;;;;;7.99;68.21;100937.84;1738153;81;25903;-70
2022/09/02 02:59:35;;;;;;;4.62;3.00;;;;;;;7.99;68.33;100932.46;1752130;80;27325;-70
2022/09/02 03:02:04;;;;;;;5.03;3.80;;;;;;;8.00;68.61;100935.41;1742927;81;25562;-70
2022/09/02 03:04:32;;;;;;;7.00;4.35;;;;;;;7.98;68.59;100935.67;1739498;81;25575;-70
2022/09/02 03:06:59;;;;;;;7.97;4.40;;;;;;;7.98;68.50;100938.37;1744470;80;25738;-70
2022/09/02 03:09:25;;;;;;;6.95;3.33;;;;;;;7.95;68.45;100935.42;1746422;81;25558;-70
2022/09/02 03:11:51;;;;;;;4.62;3.33;;;;;;;7.93;68.39;100935.70;1756266;81;27252;-70
2022/09/02 03:14:18;;;;;;;6.62;3.45;;;;;;;7.88;68.45;100936.27;1742272;81;25766;-70
2022/09/02 03:16:44;;;;;;;6.87;3.50;;;;;;;7.83;68.01;100935.22;1739640;81;25535;-70
2022/09/02 03:19:12;;;;;;;6.87;3.22;;;;;;;7.81;68.05;100947.33;1747103;81;25712;-69
2022/09/02 03:21:40;;;;;;;5.62;2.98;;;;;;;7.77;67.94;100943.58;1733043;80;25453;-70
2022/09/02 03:24:09;;;;;;;3.58;2.50;;;;;;;7.72;67.67;100952.47;1735194;81;27454;-70
2022/09/02 03:26:35;;;;;;;4.50;2.47;;;;;;;7.66;67.74;100946.30;1730270;81;25603;-70
2022/09/02 03:29:02;;;;;;;4.62;2.15;;;;;;;7.62;67.71;100945.77;1736688;82;25642;-70
2022/09/02 03:31:28;;;;;;;3.20;2.72;;;;;;;7.58;67.96;100948.20;1730460;81;25617;-70
2022/09/02 03:33:55;;;;;;;3.25;2.12;;;;;;;7.55;68.02;100944.70;1720967;82;25724;-70
2022/09/02 03:36:31;;;;;;;3.85;2.67;;;;;;;7.53;68.25;100950.11;1738394;81;27291;-70
2022/09/02 03:38:59;;;;;;;4.28;2.42;;;;;;;7.50;68.49;100953.34;1725464;81;25595;-70
2022/09/02 03:41:25;;;;;;;4.70;3.02;;;;;;;7.47;68.61;100956.02;1738581;81;25674;-70
2022/09/02 03:43:52;;;;;;;4.95;2.70;;;;;;;7.45;68.54;100961.67;1741460;82;25702;-70
2022/09/02 03:46:18;;;;;;;4.05;2.83;;;;;;;7.44;68.59;100955.20;1741758;81;25791;-70
2022/09/02 03:48:45;;;;;;;5.50;2.80;;;;;;;7.44;68.71;100959.25;1730078;81;27325;-70
2022/09/02 03:51:12;;;;;;;5.37;3.25;;;;;;;7.44;68.65;100961.42;1731884;82;25604;-70
2022/09/02 03:53:38;;;;;;;5.22;3.08;;;;;;;7.44;68.83;100962.77;1732192;81;25627;-70
2022/09/02 03:56:11;;;;;;;6.53;2.90;;;;;;;7.45;68.93;100967.60;1770903;80;25630;-70
2022/09/02 03:58:38;;;;;;;5.17;2.95;;;;;;;7.44;69.01;100968.15;1734655;81;25401;-70
2022/09/02 04:01:05;;;;;;;4.28;2.80;;;;;;;7.44;69.08;100976.73;1713784;82;27191;-71
2022/09/02 04:03:32;;;;;;;5.20;2.90;;;;;;;7.44;69.20;100975.39;1731354;81;25468;-70
2022/09/02 04:05:59;;;;;;;7.33;3.70;;;;;;;7.44;69.27;100981.61;1740032;81;25577;-70
2022/09/02 04:08:25;;;;;;;5.20;3.70;;;;;;;7.45;69.38;100982.41;1731880;81;25694;-70
2022/09/02 04:10:52;;;;;;;7.62;3.08;;;;;;;7.45;69.51;100982.41;1739018;81;25696;-70
2022/09/02 04:13:18;;;;;;;4.50;3.08;;;;;;;7.44;69.60;100982.95;1739089;81;27341;-72
2022/09/02 04:15:47;;;;;;;6.90;2.75;;;;;;;7.46;69.60;100983.48;1740690;81;25655;-70
2022/09/02 04:18:16;;;;;;;5.10;3.35;;;;;;;7.48;69.73;100980.52;1741475;81;25490;-72
2022/09/02 04:20:43;;;;;;;5.65;3.25;;;;;;;7.51;69.71;100989.92;1740991;82;26066;-71
2022/09/02 04:23:10;;;;;;;5.03;2.85;;;;;;;7.52;70.04;100989.66;1736109;81;25500;-70
2022/09/02 04:25:42;;;;;;;5.42;2.70;;;;;;;7.54;69.88;100993.42;1735650;81;27364;-70
2022/09/02 04:28:08;;;;;;;4.42;2.72;;;;;;;7.57;69.90;100991.55;1730016;81;25675;-70
2022/09/02 04:30:40;;;;;;;7.03;3.08;;;;;;;7.60;70.19;100989.66;1737354;81;25687;-71
2022/09/02 04:33:07;;;;;;;5.42;3.15;;;;;;;7.61;70.35;100988.05;1717857;82;25690;-70
2022/09/02 04:35:34;;;;;;;7.58;3.10;;;;;;;7.62;70.29;100986.95;1741694;80;25401;-71
2022/09/02 04:38:02;;;;;;;5.30;2.80;;;;;;;7.64;70.10;100992.89;1731446;81;27295;-70
2022/09/02 04:40:28;;;;;;;7.42;3.15;;;;;;;7.67;70.21;100988.84;1737794;81;25720;-71
2022/09/02 04:42:54;;;;;;;4.53;2.72;;;;;;;7.71;70.38;100993.93;1741775;81;25453;-71
2022/09/02 04:45:21;;;;;;;9.33;2.85;;;;;;;7.73;70.36;100991.80;1773015;80;25523;-71
2022/09/02 04:47:46;;;;;;;4.45;3.08;;;;;;;7.78;70.43;100993.13;1735141;81;25544;-70
2022/09/02 04:50:13;;;;;;;4.40;3.00;;;;;;;7.80;70.40;100992.31;1731675;81;27969;-70
2022/09/02 04:52:39;;;;;;;4.17;2.77;;;;;;;7.83;70.41;100996.33;1735865;81;25471;-71
2022/09/02 04:55:06;;;;;;;9.58;3.17;;;;;;;7.85;70.61;100996.34;1736335;81;25669;-71
2022/09/02 04:57:33;;;;;;;4.55;2.27;;;;;;;7.89;70.67;100992.56;1737017;82;25719;-71
2022/09/02 05:00:00;;;;;;;4.25;2.50;;;;;;;7.92;70.74;100994.71;1740837;81;25637;-72
2022/09/02 05:02:26;;;;;;;3.50;2.50;;;;;;;7.96;70.60;100990.92;1732395;81;27319;-71
2022/09/02 05:04:52;;;;;;;5.10;3.20;;;;;;;7.99;70.64;100995.77;1742935;81;33132;-71
2022/09/02 05:07:19;;;;;;;17.80;9.95;;;;;;;8.00;70.73;100991.98;1742884;81;25697;-70
2022/09/02 05:09:45;;;;;;;6.25;3.15;;;;;;;8.04;70.92;101003.84;1741358;81;26202;-70
2022/09/02 05:12:11;;;;;;;5.78;2.67;;;;;;;8.09;70.87;101002.47;1713390;82;25735;-70
2022/09/02 05:14:38;;;;;;;3.02;2.50;;;;;;;8.14;71.03;101005.67;1738174;81;27304;-71
2022/09/02 05:17:04;;;;;;;4.03;2.70;;;;;;;8.18;71.17;101003.50;1740410;81;25682;-71
2022/09/02 05:19:30;;;;;;;6.08;2.42;;;;;;;8.25;71.33;101004.56;1740989;81;25578;-71
2022/09/02 05:21:58;;;;;;;7.90;2.85;;;;;;;8.33;71.49;101003.20;1741279;82;25620;-71
2022/09/02 05:24:25;;;;;;;23.85;5.87;;;;;;;8.41;71.64;100995.34;1734126;81;25632;-70
2022/09/02 05:26:51;;;;;;;13.60;4.47;;;;;;;8.51;71.67;101001.78;1733603;82;28170;-70
2022/09/02 05:29:19;;;;;;;11.97;3.25;;;;;;;8.62;71.96;100998.51;1736950;81;25722;-70
2022/09/02 05:31:47;;;;;;;18.50;2.90;;;;;;;8.74;72.29;101002.46;1734736;81;25646;-70
2022/09/02 05:34:15;;;;;;;6.25;2.50;;;;;;;8.87;72.60;101004.27;1738488;81;25674;-70
2022/09/02 05:36:42;;;;;;;5.25;3.58;;;;;;;8.99;72.62;101000.70;1736977;81;25652;-70
2022/09/02 05:39:08;;;;;;;7.10;2.50;;;;;;;9.15;72.79;101005.44;1739934;81;27380;-70
2022/09/02 05:41:35;;;;;;;7.42;2.75;;;;;;;9.29;73.00;100999.64;1738016;81;25926;-70
2022/09/02 05:44:03;;;;;;;5.40;2.47;;;;;;;9.46;72.93;101003.83;1741376;81;25574;-71
2022/09/02 05:46:30;;;;;;;8.08;3.52;;;;;;;9.63;73.26;101002.84;1713593;82;26167;-71
2022/09/02 05:49:07;;;;;;;6.30;3.17;;;;;;;9.85;73.38;101009.66;1735494;82;25601;-71
2022/09/02 05:51:48;;;;;;;6.30;2.62;;;;;;;10.03;73.43;101006.23;1738620;81;27357;-71
2022/09/02 05:54:22;;;;;;;4.28;2.17;;;;;;;10.26;73.65;101009.20;1741372;81;25432;-71
2022/09/02 05:56:53;;;;;;;11.12;2.87;;;;;;;10.50;73.32;101018.66;1739759;81;25728;-72
2022/09/02 05:59:21;;;;;;;8.48;2.60;;;;;;;10.73;73.29;101022.42;1733966;81;25627;-71
2022/09/02 06:01:48;;;;;;;2.80;1.95;;;;;;;10.96;73.35;101025.34;1734773;81;25709;-71
2022/09/02 06:04:16;;;;;;;3.50;1.52;;;;;;;11.20;72.98;101021.18;1721669;81;27184;-71
2022/09/02 06:06:42;;;;;;;5.33;2.50;;;;;;;11.43;72.24;101016.75;1732656;81;25444;-71
2022/09/02 06:09:14;;;;;;;5.55;2.22;;;;;;;11.67;72.30;101018.52;1732920;82;25612;-71
2022/09/02 06:11:48;;;;;;;3.85;1.87;;;;;;;11.90;71.91;101017.55;1730245;81;26321;-71
2022/09/02 06:14:16;;;;;;;6.08;2.20;;;;;;;12.17;71.43;101009.74;1738594;80;25456;-71
2022/09/02 06:16:44;;;;;;;4.05;2.27;;;;;;;12.41;71.02;101010.34;1740519;80;27302;-71
2022/09/02 06:19:10;;;;;;;4.15;2.20;;;;;;;12.68;70.68;101011.38;1740439;81;25441;-72
2022/09/02 06:21:38;;;;;;;12.90;6.25;;;;;;;12.95;70.02;101009.70;1730437;81;25648;-71
2022/09/02 06:24:07;;;;;;;4.62;1.77;;;;;;;13.22;69.69;101012.86;1735974;81;25764;-71
2022/09/02 06:26:36;;;;;;;2.47;1.60;;;;;;;13.49;69.19;101014.66;1717897;82;25565;-71
2022/09/02 06:29:04;;;;;;;6.62;2.22;;;;;;;13.78;68.81;101011.45;1739511;81;27992;-72
2022/09/02 06:31:31;;;;;;;2.87;1.50;;;;;;;14.07;68.29;101015.56;1739925;81;25664;-72
2022/09/02 06:33:58;;;;;;;5.10;1.70;;;;;;;14.38;67.82;101021.49;1740007;81;26256;-71
2022/09/02 06:36:26;;;;;;;5.75;1.40;;;;;;;14.66;66.94;101018.52;1736707;82;25670;-72
2022/09/02 06:38:56;;;;;;;1.70;1.25;;;;;;;14.96;66.81;101018.70;1735774;80;25562;-72
2022/09/02 06:41:28;;;;;;;3.52;1.98;;;;;;;15.30;66.12;101020.59;1732391;81;28538;-72
2022/09/02 06:43:57;;;;;;;1.55;1.25;;;;;;;15.64;65.68;101018.34;1737106;81;25642;-71
2022/09/02 06:46:30;;;;;;;;;;;;;;;15.98;64.92;101017.23;1744037;81;25538;-70
2022/09/02 06:48:57;;;;;;;2.27;1.00;;;;;;;16.31;63.96;101020.13;1717787;81;37273;-71
2022/09/02 06:51:29;;;;;;;3.95;1.62;;;;;;;16.62;63.11;101017.02;1661795;84;26313;-69
2022/09/02 06:53:55;;;;;;;2.67;1.20;;;;;;;16.96;62.89;101025.33;1667350;82;27390;-69
2022/09/02 06:56:22;;;;;;;2.72;1.65;;;;;;;17.30;61.63;101028.88;1667380;84;25655;-69
2022/09/02 06:58:49;;;;;;;7.62;1.52;;;;;;;17.59;60.38;101028.48;1676715;82;25702;-69
2022/09/02 07:01:28;;;;;;;3.35;1.00;;;;;;;17.84;59.39;101027.41;1680755;84;25719;-69
2022/09/02 07:06:46;;;;;;;3.00;1.12;;;;;;;18.50;58.13;101038.49;1656026;84;27378;-69
2022/09/02 07:09:17;;;;;;;3.65;1.12;;;;;;;18.83;56.78;101029.55;1662848;84;25753;-69
2022/09/02 07:11:48;;;;;;;1.30;0.98;;;;;;;19.14;55.87;101025.90;1668035;84;25567;-69
2022/09/02 07:14:17;;;;;;;1.40;0.95;;;;;;;19.39;55.13;101026.00;1667901;84;27792;-69
2022/09/02 07:16:48;;;;;;;3.17;0.90;;;;;;;19.67;54.19;101030.64;1668428;84;33085;-69
2022/09/02 07:19:16;;;;;;;2.15;1.15;;;;;;;19.97;53.63;101028.84;1666168;83;28010;-69
2022/09/02 07:21:43;;;;;;;1.05;0.90;;;;;;;20.29;53.31;101034.31;1667940;84;26339;-69
2022/09/02 07:24:12;;;;;;;3.37;0.90;;;;;;;20.63;52.98;101029.99;1664029;84;25655;-69
2022/09/02 07:26:40;;;;;;;4.15;1.22;;;;;;;20.99;52.33;101029.95;1665530;84;25705;-69
2022/09/02 07:29:08;;;;;;;1.02;0.93;;;;;;;21.31;51.49;101027.83;1667780;85;25455;-69
2022/09/02 07:31:39;;;;;;;2.12;0.93;;;;;;;21.63;50.95;101031.78;1645676;85;27280;-68
2022/09/02 07:34:07;;;;;;;1.32;0.90;;;;;;;21.95;49.73;101028.19;1667702;84;25901;-69
2022/09/02 07:36:35;;;;;;;3.45;1.50;;;;;;;22.18;49.06;101028.73;1667599;84;25887;-69
2022/09/02 07:39:05;;;;;;;1.63;1.00;;;;;;;22.49;48.50;101030.97;1667882;84;25649;-69
2022/09/02 07:41:32;;;;;;;2.12;1.05;;;;;;;22.78;47.54;101028.00;1668517;84;25732;-68
2022/09/02 07:43:58;;;;;;;3.10;1.20;;;;;;;23.04;46.91;101032.67;1667206;84;27406;-68
2022/09/02 07:46:25;;;;;;;1.92;0.60;;;;;;;23.32;46.53;101035.56;1666819;84;27122;-69
2022/09/02 07:48:51;;;;;;;1.92;1.30;;;;;;;23.65;45.24;101032.52;1671667;83;28958;-67
2022/09/02 07:51:19;;;;;;;2.77;0.80;;;;;;;23.90;44.59;101030.60;1696238;83;26172;-67
2022/09/02 07:53:45;;;;;;;1.57;0.75;;;;;;;24.14;43.74;101029.98;1695391;82;25372;-67
2022/09/02 07:56:12;;;;;;;1.57;0.82;;;;;;;24.45;43.23;101037.52;1696189;83;27408;-67
2022/09/02 07:58:42;;;;;;;3.22;0.60;;;;;;;24.66;42.35;101035.47;1696037;82;25595;-69
2022/09/02 08:01:08;;;;;;;;;;;;;;;24.92;41.60;101031.62;1699642;82;26327;-69
2022/09/02 08:03:39;;;;;;;2.17;0.55;;;;;;;25.18;40.05;101029.72;1696717;82;25674;-67
2022/09/02 08:06:07;;;;;;;4.28;1.00;;;;;;;25.41;39.92;101028.62;1697534;82;25389;-68
2022/09/02 08:08:34;;;;;;;2.00;0.82;;;;;;;25.57;39.17;101031.02;1697022;83;27401;-68
2022/09/02 08:11:01;;;;;;;1.72;0.45;;;;;;;25.63;38.63;101038.55;1694513;83;26411;-69
2022/09/02 08:13:27;;;;;;;1.90;0.50;;;;;;;25.85;38.34;101022.72;1697136;82;25716;-67
2022/09/02 08:15:54;;;;;;;1.35;0.53;;;;;;;26.11;37.73;101025.50;1697425;84;27818;-68
2022/09/02 08:18:21;;;;;;;2.75;0.65;;;;;;;26.26;36.63;101020.13;1697086;84;25744;-67
2022/09/02 08:20:47;;;;;;;0.55;0.33;;;;;;;26.46;36.46;101021.27;1696398;84;27380;-69
2022/09/02 08:23:13;;;;;;;2.30;0.60;;;;;;;26.73;35.87;101023.59;1697450;84;25704;-68
2022/09/02 08:25:40;;;;;;;4.20;2.35;;;;;;;26.94;34.89;101021.91;1697073;84;25389;-67
2022/09/02 08:28:07;;;;;;;1.10;0.50;;;;;;;27.20;34.84;101019.96;1696642;84;26661;-68
2022/09/02 08:30:34;;;;;;;1.85;0.50;;;;;;;27.54;34.21;101024.92;1696186;83;25625;-69
2022/09/02 08:33:00;;;;;;;0.53;0.30;;;;;;;27.68;33.35;101024.63;1697308;84;27068;-69
2022/09/02 08:35:27;;;;;;;0.53;0.30;;;;;;;27.55;32.22;101022.34;1697285;84;25693;-68
2022/09/02 08:37:53;;;;;;;0.80;0.40;;;;;;;27.64;31.98;101021.09;1677523;84;25705;-69
2022/09/02 08:40:23;;;;;;;4.15;0.55;;;;;;;27.78;31.91;101025.14;1697011;84;25736;-68
2022/09/02 08:42:54;;;;;;;1.22;0.50;;;;;;;28.04;31.92;101019.56;1683312;82;25712;-68
2022/09/02 08:45:31;;;;;;;2.60;0.50;;;;;;;28.22;31.07;101008.88;1689853;84;27373;-70
2022/09/02 08:48:28;;;;;;;1.42;0.70;;;;;;;28.40;30.70;101004.50;1675543;84;25718;-70
2022/09/02 08:51:00;;;;;;;0.85;0.20;;;;;;;28.54;30.69;101004.93;1668758;83;25720;-70
2022/09/02 08:53:37;;;;;;;2.60;0.50;;;;;;;28.88;29.52;101006.34;1697477;84;25625;-67
2022/09/02 08:56:07;;;;;;;0.90;0.45;;;;;;;29.02;28.96;101002.56;1695902;84;25774;-67
2022/09/02 08:58:45;;;;;;;1.30;0.30;;;;;;;28.97;28.91;101008.60;1696163;83;27393;-68
2022/09/02 09:01:34;;;;;;;0.62;0.50;;;;;;;28.90;28.52;101005.92;1695422;84;25728;-67
2022/09/02 09:04:25;;;;;;;1.07;0.60;;;;;;;29.08;28.25;100998.08;1695303;83;26256;-67
2022/09/02 09:07:21;;;;;;;1.45;0.70;;;;;;;29.32;28.12;101008.73;1690905;84;25718;-65
2022/09/02 09:09:59;;;;;;;2.15;0.62;;;;;;;29.38;28.46;101000.67;1690643;83;25836;-66
2022/09/02 09:12:46;;;;;;;0.40;0.30;;;;;;;29.54;27.66;100993.04;1702896;82;27133;-66
2022/09/02 09:15:21;;;;;;;0.60;0.30;;;;;;;29.55;27.13;100997.41;1699883;83;26308;-68
2022/09/02 09:17:58;;;;;;;0.35;0.35;;;;;;;29.72;27.04;101001.90;1694801;82;25646;-68
2022/09/02 09:20:32;;;;;;;1.05;0.33;;;;;;;29.90;27.37;100996.64;1696204;83;27848;-67
2022/09/02 09:23:01;;;;;;;0.70;0.40;;;;;;;30.27;26.89;100986.39;1694427;82;25625;-67
2022/09/02 09:25:29;;;;;;;3.77;0.47;;;;;;;30.43;26.38;100978.75;1686800;82;27880;-67
2022/09/02 09:27:59;;;;;;;12.10;6.22;;;;;;;30.49;26.19;100987.56;1690926;82;25936;-67
2022/09/02 09:30:27;;;;;;;1.20;0.53;;;;;;;30.51;25.52;100983.75;1688070;84;25541;-67
2022/09/02 09:32:58;;;;;;;1.07;0.53;;;;;;;30.54;25.35;100979.30;1693088;83;25772;-66
2022/09/02 09:35:27;;;;;;;1.75;0.20;;;;;;;30.72;24.59;100983.12;1693196;82;25688;-66
2022/09/02 09:37:55;;;;;;;0.68;0.33;;;;;;;30.75;24.44;100982.84;1696944;82;27296;-67
2022/09/02 09:40:26;;;;;;;0.72;0.40;;;;;;;30.91;24.24;100982.28;1694899;83;25766;-67
2022/09/02 09:43:11;;;;;;;0.98;0.30;;;;;;;30.83;23.93;100978.06;1695415;84;25754;-67
2022/09/02 09:45:44;;;;;;;1.22;0.40;;;;;;;30.90;23.67;100977.13;1724128;81;25703;-65
2022/09/02 09:48:28;;;;;;;5.03;0.55;;;;;;;30.99;23.72;100975.16;1695432;82;25646;-66
2022/09/02 09:50:59;;;;;;;0.30;0.30;;;;;;;31.24;23.78;100971.78;1696226;82;27372;-65
2022/09/02 09:53:31;;;;;;;1.20;0.40;;;;;;;31.26;22.24;100971.54;1694823;82;25657;-65
2022/09/02 09:56:05;;;;;;;0.60;0.33;;;;;;;31.20;22.61;100975.29;1697298;83;25621;-66
2022/09/02 09:58:44;;;;;;;1.32;0.30;;;;;;;31.31;22.18;100972.23;1696716;83;26310;-66
2022/09/02 10:01:27;;;;;;;0.35;0.20;;;;;;;31.37;22.17;100972.66;1697099;82;25759;-66
2022/09/02 10:04:08;;;;;;;0.80;0.50;;;;;;;31.55;22.14;100971.45;1695684;82;27373;-66
2022/09/02 10:06:43;;;;;;;4.60;4.15;;;;;;;31.76;22.27;100971.53;1686923;83;25609;-65
2022/09/02 10:09:24;;;;;;;3.60;1.07;;;;;;;31.99;21.97;100967.70;1695734;82;25479;-66
2022/09/02 10:12:03;;;;;;;1.17;0.78;;;;;;;32.26;21.86;100958.21;1695878;82;25709;-67
2022/09/02 10:14:46;;;;;;;1.12;0.47;;;;;;;32.50;21.81;100956.69;1693589;83;25440;-66
2022/09/02 10:17:57;;;;;;;1.75;0.30;;;;;;;32.68;21.10;100952.61;1693244;84;29475;-67
2022/09/02 10:20:38;;;;;;;0.80;0.40;;;;;;;32.69;21.05;100952.77;1696223;84;25676;-67
2022/09/02 10:23:35;;;;;;;2.55;0.53;;;;;;;32.57;20.33;100943.89;1694995;82;25725;-67
2022/09/02 10:26:31;;;;;;;0.30;0.30;;;;;;;32.55;20.79;100951.94;1692676;82;25676;-67
2022/09/02 10:29:21;;;;;;;1.90;0.40;;;;;;;32.66;20.68;100947.45;1696106;82;25629;-67
2022/09/02 10:32:04;;;;;;;1.80;0.40;;;;;;;32.55;20.64;100939.34;1717444;82;27399;-65
2022/09/02 10:35:19;;;;;;;1.07;0.50;;;;;;;32.64;20.70;100942.13;1696454;83;25631;-67
2022/09/02 10:38:06;;;;;;;3.12;0.30;;;;;;;32.56;20.82;100945.73;1696974;83;25380;-66
2022/09/02 10:40:40;;;;;;;1.05;0.50;;;;;;;32.80;20.27;100942.03;1690022;84;27733;-67
2022/09/02 10:43:24;;;;;;;0.75;0.40;;;;;;;33.04;20.40;100941.06;1695157;82;25412;-67
2022/09/02 10:45:58;;;;;;;3.35;1.57;;;;;;;33.23;20.22;100951.11;1696917;83;27112;-66
2022/09/02 10:48:58;;;;;;;1.15;0.93;;;;;;;33.01;19.62;100947.56;1697345;84;25780;-66
2022/09/02 10:51:39;;;;;;;0.40;0.40;;;;;;;33.00;19.50;100945.20;1697079;82;25547;-66
2022/09/02 10:54:26;;;;;;;2.22;2.02;;;;;;;33.01;19.15;100939.78;1689774;84;25702;-67
2022/09/02 10:57:03;;;;;;;1.00;0.60;;;;;;;32.86;19.38;100940.25;1639802;87;25490;-69
2022/09/02 10:59:41;;;;;;;1.70;0.30;;;;;;;32.95;19.59;100941.75;1639980;87;27317;-65
2022/09/02 11:02:21;;;;;;;2.65;0.72;;;;;;;33.17;19.53;100938.89;1639796;87;25686;-66
2022/09/02 11:04:56;;;;;;;0.62;0.62;;;;;;;33.39;19.03;100935.56;1638303;85;25761;-67
2022/09/02 11:07:36;;;;;;;0.50;0.30;;;;;;;33.03;18.91;100931.70;1629934;87;28021;-66
2022/09/02 11:10:19;;;;;;;3.02;0.40;;;;;;;33.01;18.85;100932.16;1639884;87;25602;-66
2022/09/02 11:12:57;;;;;;;1.98;0.40;;;;;;;33.03;19.06;100931.70;1613783;87;27312;-67
2022/09/02 11:15:48;;;;;;;2.45;0.53;;;;;;;33.23;18.94;100928.06;1612959;87;27171;-67
2022/09/02 11:18:24;;;;;;;0.75;0.33;;;;;;;33.21;18.73;100928.36;1607759;87;25589;-65
2022/09/02 11:21:02;;;;;;;0.40;0.23;;;;;;;33.42;19.08;100923.41;1613369;87;25756;-65
2022/09/02 11:23:56;;;;;;;0.55;0.40;;;;;;;33.37;18.70;100928.20;1623688;87;25721;-66
2022/09/02 11:26:31;;;;;;;0.40;0.30;;;;;;;33.44;18.90;100933.58;1615176;86;27350;-68
2022/09/02 11:29:26;;;;;;;1.70;0.50;;;;;;;33.40;18.72;100925.13;1613514;87;25802;-66
2022/09/02 11:32:16;;;;;;;0.78;0.28;;;;;;;33.28;18.98;100926.09;1613489;87;25775;-68
2022/09/02 11:34:53;;;;;;;0.68;0.30;;;;;;;33.48;18.81;100931.43;1684918;82;26291;-64
2022/09/02 11:37:40;;;;;;;2.30;0.33;;;;;;;33.48;18.50;100920.22;1692096;84;25812;-67
2022/09/02 11:40:29;;;;;;;0.17;0.17;;;;;;;33.60;18.62;100920.64;1670326;84;27511;-68
2022/09/02 11:43:17;;;;;;;0.90;0.40;;;;;;;33.73;18.66;100913.59;1670881;84;26674;-68
2022/09/02 11:46:13;;;;;;;0.40;0.25;;;;;;;33.90;18.52;100914.19;1672776;84;25750;-69
2022/09/02 11:49:02;;;;;;;0.37;0.20;;;;;;;33.85;18.35;100917.75;1633103;86;25684;-68
2022/09/02 11:51:46;;;;;;;0.50;0.40;;;;;;;33.81;18.05;100910.06;1671298;84;25660;-68